Time;durP1;ratioP1;P1;durP2;ratioP2;P2;SDS_P1;SDS_P2;PMS_P1;PMS_P2;Temp;Humidity;BMP_temperature;BMP_pressure;BME280_temperature;BME280_humidity;BME280_pressure;Samples;Min_cycle;Max_cycle;Signal;HPM_P1;HPM_P2
2022/12/20 00:01:26;;;;;;;23.37;14.73;;;4.70;79.00;4.40;97052.00;;;;5072609;28;20261;-88
2022/12/20 00:03:57;;;;;;;22.77;15.30;;;4.70;78.90;4.30;97039.00;;;;5074108;28;20208;-89
2022/12/20 00:06:25;;;;;;;22.10;13.93;;;6.20;79.90;4.30;97036.00;;;;5074520;28;20663;-88
2022/12/20 00:08:57;;;;;;;24.73;14.80;;;4.70;79.60;4.30;97049.00;;;;5076195;28;20220;-89
2022/12/20 00:11:27;;;;;;;22.53;14.03;;;4.70;78.80;4.30;97042.00;;;;5075810;28;20286;-88
2022/12/20 00:13:56;;;;;;;22.37;14.13;;;4.70;78.70;4.30;97046.00;;;;5075799;28;20321;-89
2022/12/20 00:16:26;;;;;;;19.63;13.20;;;4.70;78.80;4.30;97041.00;;;;5073205;28;20204;-89
2022/12/20 00:18:56;;;;;;;21.47;14.53;;;4.70;78.80;4.30;97043.00;;;;5074636;28;20226;-89
2022/12/20 00:21:27;;;;;;;21.03;13.90;;;4.70;78.90;4.30;97045.00;;;;5074656;28;20788;-89
2022/12/20 00:23:55;;;;;;;21.57;14.27;;;4.70;78.80;4.30;97045.00;;;;5074307;28;20705;-88
2022/12/20 00:26:28;;;;;;;23.07;13.93;;;4.70;78.80;4.30;97041.00;;;;5075491;28;20520;-89
2022/12/20 00:28:59;;;;;;;22.27;14.07;;;4.70;78.80;4.30;97043.00;;;;5074493;28;20305;-89
2022/12/20 00:31:28;;;;;;;20.17;13.13;;;4.70;78.80;4.30;97035.00;;;;5080648;28;20235;-89
2022/12/20 00:33:58;;;;;;;23.33;13.80;;;4.70;78.90;4.30;97034.00;;;;5081837;28;20505;-88
2022/12/20 00:36:28;;;;;;;18.53;13.40;;;4.70;78.80;4.30;97033.00;;;;5080695;28;20504;-89
2022/12/20 00:38:59;;;;;;;21.13;13.60;;;5.10;79.00;4.30;97015.00;;;;5084056;28;21055;-88
2022/12/20 00:41:28;;;;;;;20.37;13.83;;;4.70;78.70;4.20;97024.00;;;;5078821;28;20206;-90
2022/12/20 00:43:57;;;;;;;22.50;12.77;;;4.70;78.70;4.20;97027.00;;;;5079850;28;20239;-89
2022/12/20 00:46:25;;;;;;;19.80;13.47;;;4.80;78.70;4.20;97016.00;;;;5075647;28;20528;-89
2022/12/20 00:48:54;;;;;;;20.97;14.13;;;4.60;78.70;4.20;97025.00;;;;5073695;28;21602;-88
2022/12/20 00:51:24;;;;;;;22.27;13.77;;;4.70;78.90;4.30;97028.00;;;;5075269;28;20203;-89
2022/12/20 00:53:52;;;;;;;21.03;14.03;;;5.80;79.70;4.20;97022.00;;;;5070926;28;20539;-89
2022/12/20 00:56:20;;;;;;;21.30;14.10;;;4.70;78.90;4.30;97031.00;;;;5070983;28;20494;-89
2022/12/20 00:58:48;;;;;;;20.00;13.40;;;5.40;79.30;4.30;97025.00;;;;5073396;28;20261;-90
2022/12/20 01:01:22;;;;;;;21.93;13.47;;;4.70;78.80;4.30;97021.00;;;;5072280;28;20204;-90
2022/12/20 01:03:50;;;;;;;22.43;14.60;;;4.70;78.80;4.30;96999.00;;;;5072251;28;20458;-90
2022/12/20 01:06:19;;;;;;;22.37;13.83;;;5.00;79.20;4.20;97025.00;;;;5071578;28;20553;-90
2022/12/20 01:08:47;;;;;;;22.17;13.87;;;4.80;79.00;4.30;97024.00;;;;5072921;28;20702;-89
2022/12/20 01:11:18;;;;;;;22.77;15.03;;;4.70;79.00;4.30;97031.00;;;;5066064;28;20488;-89
2022/12/20 01:13:49;;;;;;;21.83;13.60;;;4.60;78.90;4.30;97030.00;;;;5075693;28;20223;-90
2022/12/20 01:16:21;;;;;;;20.80;13.60;;;4.70;79.00;4.30;97018.00;;;;5076039;28;20230;-89
2022/12/20 01:18:50;;;;;;;20.67;13.33;;;4.70;79.00;4.30;97039.00;;;;5076265;28;20307;-88
2022/12/20 01:21:21;;;;;;;19.40;13.33;;;4.70;79.10;4.30;97036.00;;;;5075417;28;21187;-90
2022/12/20 01:23:48;;;;;;;20.23;13.80;;;4.70;79.10;4.30;97032.00;;;;5074362;28;20203;-90
2022/12/20 01:26:19;;;;;;;23.10;13.97;;;4.60;79.00;4.30;97023.00;;;;5074332;28;20290;-90
2022/12/20 01:28:49;;;;;;;21.37;14.43;;;5.30;79.40;4.30;97026.00;;;;5072704;28;20239;-90
2022/12/20 01:31:19;;;;;;;20.27;14.23;;;4.70;79.10;4.30;97023.00;;;;5074084;28;20925;-90
2022/12/20 01:33:48;;;;;;;19.10;13.00;;;4.70;79.10;4.30;97017.00;;;;5072014;28;20206;-90
2022/12/20 01:36:19;;;;;;;21.50;13.47;;;4.60;79.00;4.30;97021.00;;;;5076289;28;20678;-91
2022/12/20 01:38:46;;;;;;;21.70;14.40;;;5.50;79.70;4.20;97005.00;;;;5072722;28;20258;-90
2022/12/20 01:41:17;;;;;;;22.93;14.97;;;4.70;79.20;4.30;97019.00;;;;5073151;28;20477;-89
2022/12/20 01:43:49;;;;;;;21.97;14.40;;;4.90;79.30;4.20;97026.00;;;;5072586;28;20228;-90
2022/12/20 01:46:20;;;;;;;21.43;13.83;;;4.70;79.20;4.30;97006.00;;;;5069430;28;20992;-90
2022/12/20 01:48:56;;;;;;;22.07;15.13;;;4.70;79.30;4.30;96986.00;;;;5072633;28;20259;-90
2022/12/20 01:51:25;;;;;;;21.07;13.67;;;5.60;79.90;4.30;96996.00;;;;5070569;28;20195;-90
2022/12/20 01:54:01;;;;;;;20.17;13.60;;;4.70;79.10;4.40;97007.00;;;;5072248;28;21031;-89
2022/12/20 01:56:29;;;;;;;23.40;14.30;;;4.70;79.20;4.40;97017.00;;;;5064568;28;20460;-89
2022/12/20 01:58:57;;;;;;;20.03;13.50;;;4.70;80.00;4.40;97009.00;;;;5072596;28;20285;-89
2022/12/20 02:01:26;;;;;;;20.23;13.33;;;4.80;79.30;4.40;97013.00;;;;5073099;28;20778;-89
2022/12/20 02:03:55;;;;;;;21.27;14.10;;;4.70;79.10;4.40;96999.00;;;;5069844;28;20689;-88
2022/12/20 02:06:26;;;;;;;19.63;13.47;;;4.70;79.20;4.40;96998.00;;;;5066715;28;20560;-89
2022/12/20 02:09:00;;;;;;;21.93;13.93;;;4.80;79.20;4.40;96988.00;;;;5069955;28;20226;-89
2022/12/20 02:11:56;;;;;;;19.00;12.73;;;4.80;79.10;4.40;97008.00;;;;5063622;28;20196;-89
2022/12/20 02:14:56;;;;;;;21.47;13.40;;;4.80;79.10;4.40;97007.00;;;;5066853;28;20232;-89
2022/12/20 02:17:45;;;;;;;21.40;13.33;;;4.80;78.80;4.40;97003.00;;;;5067550;28;20745;-89
2022/12/20 02:21:06;;;;;;;19.43;13.03;;;4.80;79.10;4.40;97017.00;;;;5065963;28;20227;-89
2022/12/20 02:24:20;;;;;;;21.03;13.00;;;4.80;78.90;4.40;97005.00;;;;5051045;28;20202;-89
2022/12/20 02:27:40;;;;;;;19.67;12.73;;;4.80;79.00;4.30;96997.00;;;;5069558;28;20353;-89
2022/12/20 02:30:15;;;;;;;21.07;13.37;;;4.80;79.00;4.30;96992.00;;;;5063651;28;20562;-90
2022/12/20 02:32:50;;;;;;;22.13;13.43;;;4.80;79.20;4.30;96996.00;;;;5071064;28;20577;-89
2022/12/20 02:35:24;;;;;;;20.40;13.87;;;4.80;79.20;4.30;96993.00;;;;5071319;28;20326;-88
2022/12/20 02:37:55;;;;;;;21.63;13.60;;;4.80;79.30;4.40;96999.00;;;;5069087;28;20308;-88
2022/12/20 02:40:28;;;;;;;20.43;13.20;;;4.80;79.40;4.40;97002.00;;;;5070849;28;20231;-88
2022/12/20 02:43:02;;;;;;;20.13;13.47;;;4.80;79.40;4.30;96983.00;;;;5071891;28;20266;-89
2022/12/20 02:45:34;;;;;;;21.70;13.37;;;5.30;79.60;4.40;96986.00;;;;5067753;28;20461;-89
2022/12/20 02:48:08;;;;;;;20.83;13.30;;;4.90;79.40;4.40;96987.00;;;;5066660;28;20208;-89
2022/12/20 02:50:40;;;;;;;19.83;13.63;;;4.70;79.40;4.40;96982.00;;;;5068542;28;20580;-88
2022/12/20 02:53:09;;;;;;;21.67;13.80;;;4.80;79.40;4.40;96979.00;;;;5069889;28;20557;-89
2022/12/20 02:55:49;;;;;;;21.50;13.83;;;4.80;79.40;4.40;96968.00;;;;5064928;28;20253;-89
2022/12/20 02:58:26;;;;;;;22.70;14.77;;;5.20;79.50;4.30;96970.00;;;;5069613;28;20223;-89
2022/12/20 03:01:03;;;;;;;20.07;14.00;;;4.80;79.40;4.40;96966.00;;;;5066695;28;20712;-89
2022/12/20 03:03:31;;;;;;;21.83;13.83;;;4.80;79.30;4.40;96986.00;;;;5068504;28;20468;-87
2022/12/20 03:05:59;;;;;;;19.07;13.13;;;5.60;80.00;4.40;96976.00;;;;5074585;28;20486;-89
2022/12/20 03:08:27;;;;;;;22.53;14.03;;;4.80;79.50;4.40;96980.00;;;;5071802;28;20473;-89
2022/12/20 03:10:55;;;;;;;19.83;13.77;;;4.80;79.30;4.40;96976.00;;;;5072467;28;20196;-89
2022/12/20 03:13:24;;;;;;;19.67;13.40;;;4.80;79.30;4.40;96982.00;;;;5074516;28;20243;-88
2022/12/20 03:15:52;;;;;;;22.03;14.17;;;4.80;79.40;4.40;96987.00;;;;5072120;28;20457;-88
2022/12/20 03:18:20;;;;;;;22.77;14.33;;;4.80;79.30;4.40;96962.00;;;;5076961;28;20304;-88
2022/12/20 03:20:48;;;;;;;21.03;13.83;;;4.10;79.00;4.40;96987.00;;;;5073326;28;20245;-89
2022/12/20 03:23:15;;;;;;;21.03;13.60;;;4.80;79.30;4.40;96968.00;;;;5076296;28;20294;-88
2022/12/20 03:25:42;;;;;;;22.33;14.03;;;4.80;79.10;4.50;96970.00;;;;5075531;28;20278;-89
2022/12/20 03:28:09;;;;;;;20.90;13.00;;;4.80;79.20;4.40;96975.00;;;;5075092;28;20204;-89
2022/12/20 03:30:36;;;;;;;22.07;14.17;;;4.70;79.30;4.50;96973.00;;;;5077844;28;20204;-88
2022/12/20 03:33:04;;;;;;;21.87;14.87;;;5.80;79.90;4.50;96960.00;;;;5076430;28;20195;-89
2022/12/20 03:35:33;;;;;;;23.37;14.07;;;4.80;79.20;4.50;96962.00;;;;5073965;28;20382;-90
2022/12/20 03:38:00;;;;;;;19.20;13.43;;;4.80;79.20;4.50;96949.00;;;;5074596;28;20703;-89
2022/12/20 03:40:27;;;;;;;21.17;13.80;;;4.80;79.10;4.40;96957.00;;;;5076008;28;21151;-89
2022/12/20 03:42:54;;;;;;;21.73;13.87;;;4.80;79.10;4.50;96937.00;;;;5074925;28;20518;-88
2022/12/20 03:45:22;;;;;;;21.13;13.97;;;4.50;79.10;4.50;96938.00;;;;5072458;28;21070;-89
2022/12/20 03:47:49;;;;;;;20.30;13.37;;;4.90;79.20;4.50;96922.00;;;;5074721;28;20765;-88
2022/12/20 03:50:16;;;;;;;19.07;12.73;;;5.30;79.40;4.50;96919.00;;;;5074431;28;20536;-88
2022/12/20 03:52:45;;;;;;;21.13;13.57;;;4.80;79.10;4.50;96943.00;;;;5074929;28;20211;-90
2022/12/20 03:55:12;;;;;;;20.60;13.67;;;4.80;79.00;4.50;96938.00;;;;5075555;28;20207;-89
2022/12/20 03:57:40;;;;;;;23.37;13.80;;;5.00;79.10;4.50;96936.00;;;;5074395;28;20618;-89
2022/12/20 04:00:11;;;;;;;20.30;13.80;;;4.80;79.00;4.50;96942.00;;;;5072661;28;20227;-88
2022/12/20 04:02:38;;;;;;;20.83;13.43;;;4.90;79.10;4.40;96939.00;;;;5073921;28;20207;-90
2022/12/20 04:05:06;;;;;;;19.33;13.23;;;4.80;79.70;4.40;96930.00;;;;5074594;28;20196;-88
2022/12/20 04:07:34;;;;;;;20.63;14.13;;;4.90;79.10;4.40;96920.00;;;;5075960;28;20218;-89
2022/12/20 04:10:04;;;;;;;19.67;13.40;;;4.80;79.00;4.50;96951.00;;;;5074871;28;20306;-90
2022/12/20 04:12:31;;;;;;;21.10;14.30;;;4.80;79.10;4.40;96939.00;;;;5074698;28;20282;-89
2022/12/20 04:14:59;;;;;;;17.80;12.90;;;5.20;79.40;4.40;96935.00;;;;5072878;28;20235;-90
2022/12/20 04:17:26;;;;;;;20.80;13.33;;;4.80;79.10;4.50;96949.00;;;;5071131;28;21237;-90
2022/12/20 04:19:53;;;;;;;18.63;12.07;;;4.90;79.30;4.40;96946.00;;;;5073817;28;20591;-89
2022/12/20 04:22:20;;;;;;;20.40;14.07;;;4.90;79.30;4.50;96965.00;;;;5074535;28;20283;-89
2022/12/20 04:24:48;;;;;;;19.17;12.80;;;4.80;79.30;4.50;96957.00;;;;5072439;28;20727;-89
2022/12/20 04:27:16;;;;;;;20.30;13.07;;;4.80;79.30;4.50;96967.00;;;;5071897;28;20671;-88
2022/12/20 04:29:43;;;;;;;19.93;13.20;;;4.90;79.40;4.50;96958.00;;;;5074658;28;20466;-89
2022/12/20 04:32:11;;;;;;;21.93;13.37;;;4.70;79.30;4.50;96940.00;;;;5073118;28;20635;-89
2022/12/20 04:34:38;;;;;;;20.73;13.63;;;4.80;79.30;4.50;96953.00;;;;5072132;28;20203;-89
2022/12/20 04:37:05;;;;;;;21.17;13.50;;;5.30;79.70;4.50;96941.00;;;;5074413;28;20232;-89
2022/12/20 04:39:32;;;;;;;18.97;12.93;;;4.90;79.40;4.50;96941.00;;;;5075192;28;20219;-89
2022/12/20 04:41:59;;;;;;;21.20;13.53;;;5.50;79.80;4.50;96951.00;;;;5071595;28;20473;-88
2022/12/20 04:44:28;;;;;;;20.93;14.43;;;4.90;79.30;4.50;96940.00;;;;5073292;28;20215;-88
2022/12/20 04:46:55;;;;;;;20.40;13.17;;;4.90;79.30;4.50;96936.00;;;;5073407;28;20286;-90
2022/12/20 04:49:22;;;;;;;22.33;12.93;;;4.90;79.30;4.50;96930.00;;;;5070786;28;20729;-89
2022/12/20 04:51:49;;;;;;;22.77;13.87;;;4.90;79.10;4.40;96912.00;;;;5075826;28;20710;-88
2022/12/20 04:54:16;;;;;;;20.63;14.20;;;4.90;79.10;4.40;96927.00;;;;5074390;28;20834;-88
2022/12/20 04:56:43;;;;;;;23.33;13.87;;;4.80;78.90;4.40;96921.00;;;;5072397;28;20208;-89
2022/12/20 04:59:11;;;;;;;21.10;13.60;;;4.80;78.90;4.40;96913.00;;;;5071213;28;20230;-91
2022/12/20 05:01:40;;;;;;;20.57;13.00;;;4.80;79.00;4.40;96927.00;;;;5070090;28;20282;-90
2022/12/20 05:04:09;;;;;;;20.00;13.13;;;4.90;79.00;4.40;96907.00;;;;5071487;28;20736;-89
2022/12/20 05:06:36;;;;;;;23.67;13.90;;;4.80;79.00;4.40;96935.00;;;;5074544;28;20280;-89
2022/12/20 05:09:03;;;;;;;19.43;13.03;;;4.80;79.10;4.40;96921.00;;;;5070250;28;20251;-88
2022/12/20 05:11:31;;;;;;;18.90;12.27;;;4.80;79.10;4.40;96908.00;;;;5073439;28;20203;-89
2022/12/20 05:13:58;;;;;;;19.57;13.77;;;4.80;79.10;4.40;96900.00;;;;5073420;28;20462;-89
2022/12/20 05:16:25;;;;;;;18.77;12.97;;;5.00;79.20;4.40;96906.00;;;;5071785;28;20237;-89
2022/12/20 05:18:54;;;;;;;21.67;14.47;;;4.80;79.10;4.40;96893.00;;;;5068937;28;20419;-90
2022/12/20 05:27:04;;;;;;;21.70;13.73;;;4.80;79.10;4.40;96886.00;;;;5046214;28;20319;-90
2022/12/20 05:29:32;;;;;;;20.27;13.60;;;4.80;79.00;4.40;96885.00;;;;5055001;28;20226;-89
2022/12/20 05:31:59;;;;;;;20.00;13.17;;;4.80;79.00;4.40;96890.00;;;;5068946;28;20199;-89
2022/12/20 05:34:28;;;;;;;20.73;13.40;;;4.70;79.10;4.40;96880.00;;;;5072250;28;20520;-90
2022/12/20 05:36:55;;;;;;;17.60;12.17;;;4.80;79.10;4.40;96875.00;;;;5074832;28;20500;-90
2022/12/20 05:39:26;;;;;;;21.37;13.47;;;4.70;79.20;4.40;96891.00;;;;5074403;28;20542;-90
2022/12/20 05:41:53;;;;;;;19.43;12.70;;;5.70;79.80;4.40;96873.00;;;;5076223;28;20195;-89
2022/12/20 05:44:21;;;;;;;17.73;13.03;;;4.80;79.10;4.40;96866.00;;;;5074472;28;20200;-89
2022/12/20 05:46:48;;;;;;;20.10;13.10;;;4.90;79.20;4.40;96876.00;;;;5068180;28;20690;-90
2022/12/20 05:49:15;;;;;;;18.67;12.70;;;5.00;79.30;4.40;96873.00;;;;5063820;28;20219;-91
2022/12/20 05:51:44;;;;;;;19.50;12.70;;;4.80;79.30;4.40;96870.00;;;;5072046;28;20222;-90
2022/12/20 05:54:11;;;;;;;18.37;12.30;;;4.90;79.40;4.40;96873.00;;;;5073158;28;20489;-90
2022/12/20 05:56:39;;;;;;;19.53;12.40;;;4.80;79.30;4.50;96855.00;;;;5071179;28;20285;-90
2022/12/20 05:59:06;;;;;;;19.97;12.83;;;6.00;80.30;4.50;96860.00;;;;5066765;28;20254;-91
2022/12/20 06:01:33;;;;;;;17.83;12.10;;;4.80;79.30;4.50;96864.00;;;;5060615;28;20198;-90
2022/12/20 06:04:00;;;;;;;18.90;12.43;;;4.80;79.20;4.50;96864.00;;;;5065284;28;20204;-90
2022/12/20 06:06:28;;;;;;;17.63;12.30;;;4.80;79.40;4.50;96877.00;;;;5065690;28;20195;-91
2022/12/20 06:08:56;;;;;;;22.50;13.10;;;4.90;79.30;4.50;96855.00;;;;5063008;28;20231;-90
2022/12/20 06:11:24;;;;;;;17.13;11.97;;;5.20;79.50;4.50;96836.00;;;;5062788;28;20880;-91
2022/12/20 06:13:51;;;;;;;19.27;13.10;;;5.70;80.00;4.50;96853.00;;;;5066155;28;20287;-91
2022/12/20 06:16:21;;;;;;;16.43;11.63;;;4.80;79.20;4.50;96861.00;;;;5067524;28;20256;-90
2022/12/20 06:18:49;;;;;;;16.20;12.07;;;4.90;79.40;4.50;96868.00;;;;5071351;28;20227;-89
2022/12/20 06:21:17;;;;;;;18.13;12.53;;;4.90;79.40;4.50;96862.00;;;;5070566;28;20205;-90
2022/12/20 06:23:44;;;;;;;19.30;12.30;;;4.90;79.50;4.60;96868.00;;;;5068869;28;20204;-90
2022/12/20 06:26:13;;;;;;;16.53;11.13;;;4.90;79.40;4.50;96863.00;;;;5069326;28;20461;-91
2022/12/20 06:28:41;;;;;;;16.57;12.03;;;4.90;79.50;4.60;96852.00;;;;5071157;28;20281;-91
2022/12/20 06:31:10;;;;;;;18.80;12.00;;;5.30;79.70;4.50;96879.00;;;;5067884;28;20458;-89
2022/12/20 06:33:38;;;;;;;20.20;13.67;;;5.50;79.80;4.60;96876.00;;;;5069172;28;20474;-90
2022/12/20 06:36:06;;;;;;;20.20;13.60;;;4.90;79.40;4.60;96879.00;;;;5073613;28;20192;-90
2022/12/20 06:38:33;;;;;;;17.90;12.03;;;4.90;79.40;4.60;96876.00;;;;5071813;28;20790;-90
2022/12/20 06:41:00;;;;;;;21.27;12.70;;;4.90;79.40;4.70;96891.00;;;;5073136;28;20278;-90
2022/12/20 06:43:29;;;;;;;19.23;12.50;;;5.10;79.40;4.70;96869.00;;;;5069905;28;20196;-91
2022/12/20 06:45:56;;;;;;;19.47;12.97;;;5.00;79.30;4.70;96871.00;;;;5070818;28;20208;-90
2022/12/20 06:48:23;;;;;;;20.00;13.10;;;5.00;79.10;4.70;96871.00;;;;5073288;28;20223;-91
2022/12/20 06:50:51;;;;;;;18.93;13.33;;;5.00;79.10;4.70;96886.00;;;;5074882;28;20373;-90
2022/12/20 06:53:18;;;;;;;20.20;13.23;;;6.20;80.20;4.70;96877.00;;;;5078882;28;20204;-90
2022/12/20 06:55:49;;;;;;;20.10;13.23;;;5.10;79.50;4.70;96878.00;;;;5073852;28;20236;-91
2022/12/20 06:58:16;;;;;;;20.33;12.90;;;5.00;79.40;4.70;96877.00;;;;5073481;28;20226;-89
2022/12/20 07:00:45;;;;;;;22.80;12.90;;;5.20;79.60;4.70;96872.00;;;;5070233;28;20723;-90
2022/12/20 07:03:12;;;;;;;19.10;13.00;;;5.00;79.50;4.80;96866.00;;;;5074402;28;20309;-90
2022/12/20 07:05:40;;;;;;;19.97;13.33;;;5.50;80.10;4.80;96863.00;;;;5076672;28;20209;-89
2022/12/20 07:08:09;;;;;;;20.17;12.77;;;5.10;79.50;4.80;96862.00;;;;5076149;28;20211;-90
2022/12/20 07:10:37;;;;;;;19.27;13.40;;;5.80;79.90;4.90;96859.00;;;;5071390;28;20252;-91
2022/12/20 07:13:09;;;;;;;18.77;13.20;;;5.10;79.50;4.90;96852.00;;;;5075289;28;21190;-90
2022/12/20 07:15:36;;;;;;;19.83;13.10;;;6.50;80.30;5.00;96858.00;;;;5070564;28;20211;-90
2022/12/20 07:18:05;;;;;;;17.10;12.93;;;5.10;79.50;5.00;96864.00;;;;5072317;28;20290;-90
2022/12/20 07:20:35;;;;;;;19.53;13.03;;;5.10;79.30;5.10;96887.00;;;;5069580;28;20600;-91
2022/12/20 07:23:03;;;;;;;18.77;13.27;;;5.20;79.40;5.10;96875.00;;;;5068022;28;20660;-90
2022/12/20 07:25:30;;;;;;;20.47;12.80;;;5.20;80.10;5.10;96865.00;;;;5066437;28;20203;-90
2022/12/20 07:27:57;;;;;;;18.60;12.47;;;5.60;79.60;5.10;96865.00;;;;5069007;28;20195;-89
2022/12/20 07:30:28;;;;;;;19.30;13.00;;;5.20;79.20;5.10;96867.00;;;;5067053;28;20455;-89
2022/12/20 07:32:55;;;;;;;19.17;13.13;;;5.30;79.30;5.10;96883.00;;;;5076124;28;20291;-89
2022/12/20 07:35:25;;;;;;;20.70;13.77;;;5.30;79.30;5.20;96871.00;;;;5071114;28;20228;-90
2022/12/20 07:37:52;;;;;;;23.33;14.07;;;5.50;79.40;5.20;96870.00;;;;5074317;28;20248;-90
2022/12/20 07:40:20;;;;;;;18.70;13.13;;;5.30;79.00;5.20;96885.00;;;;5072572;28;20227;-90
2022/12/20 07:42:47;;;;;;;21.17;14.20;;;5.40;79.10;5.20;96875.00;;;;5064482;28;20200;-90
2022/12/20 07:45:14;;;;;;;20.23;13.93;;;6.00;79.70;5.20;96859.00;;;;5064970;28;20495;-88
2022/12/20 07:47:42;;;;;;;21.17;14.00;;;5.30;79.10;5.20;96863.00;;;;5065392;28;20746;-90
2022/12/20 07:50:11;;;;;;;21.60;13.67;;;5.30;79.10;5.30;96868.00;;;;5065672;28;20223;-90
2022/12/20 07:52:44;;;;;;;20.00;13.30;;;5.40;79.10;5.30;96870.00;;;;5074552;28;20213;-91
2022/12/20 07:55:14;;;;;;;20.53;14.20;;;5.40;79.10;5.30;96879.00;;;;5071789;28;20278;-90
2022/12/20 07:57:47;;;;;;;18.97;13.43;;;5.40;79.10;5.30;96867.00;;;;5074936;28;20224;-90
2022/12/20 08:00:17;;;;;;;21.00;13.97;;;5.40;79.00;5.30;96881.00;;;;5069679;28;20243;-90
2022/12/20 08:02:54;;;;;;;22.07;14.17;;;5.40;78.90;5.30;96886.00;;;;5071828;28;20203;-89
2022/12/20 08:05:23;;;;;;;22.77;14.37;;;5.50;78.90;5.30;96888.00;;;;5070312;28;20626;-92
2022/12/20 08:07:56;;;;;;;20.37;14.27;;;5.40;79.10;5.40;96886.00;;;;5067218;28;20216;-89
2022/12/20 08:10:23;;;;;;;21.03;13.33;;;6.50;79.70;5.40;96884.00;;;;5066740;28;20199;-89
2022/12/20 08:12:51;;;;;;;22.80;15.10;;;5.40;79.10;5.40;96886.00;;;;5066187;28;20350;-90
2022/12/20 08:15:21;;;;;;;22.20;14.40;;;5.50;79.10;5.40;96884.00;;;;5074384;28;20302;-90
2022/12/20 08:17:49;;;;;;;20.13;13.77;;;5.50;79.00;5.40;96890.00;;;;5073851;28;20322;-90
2022/12/20 08:20:17;;;;;;;21.67;14.13;;;5.50;79.00;5.50;96884.00;;;;5075437;28;20311;-91
2022/12/20 08:22:44;;;;;;;20.60;13.93;;;5.50;78.90;5.50;96893.00;;;;5073852;28;20195;-91
2022/12/20 08:25:13;;;;;;;20.97;13.67;;;5.60;78.90;5.50;96880.00;;;;5073988;28;20291;-90
2022/12/20 08:27:40;;;;;;;21.73;14.37;;;5.50;78.90;5.50;96877.00;;;;5075227;28;20794;-90
2022/12/20 08:30:10;;;;;;;21.10;14.17;;;6.00;79.10;5.60;96878.00;;;;5073679;28;20339;-90
2022/12/20 08:32:37;;;;;;;20.80;13.93;;;5.60;79.00;5.60;96880.00;;;;5073340;28;20243;-90
2022/12/20 08:35:06;;;;;;;21.80;14.53;;;5.60;79.10;5.60;96878.00;;;;5073256;28;20366;-89
2022/12/20 08:37:34;;;;;;;20.13;13.67;;;5.70;79.00;5.70;96879.00;;;;5074126;28;20254;-90
2022/12/20 08:40:02;;;;;;;22.13;13.97;;;6.70;79.70;5.70;96872.00;;;;5075621;28;20690;-89
2022/12/20 08:42:35;;;;;;;22.17;15.20;;;5.90;79.10;5.80;96872.00;;;;5074964;28;20207;-90
2022/12/20 08:45:03;;;;;;;20.53;14.43;;;6.60;79.50;5.80;96869.00;;;;5072003;28;20258;-91
2022/12/20 08:47:30;;;;;;;19.90;13.93;;;5.70;79.00;5.80;96866.00;;;;5075757;28;20260;-90
2022/12/20 08:49:57;;;;;;;22.10;14.47;;;5.80;79.00;5.80;96878.00;;;;5073869;28;20266;-90
2022/12/20 08:52:25;;;;;;;22.13;14.40;;;5.80;79.10;5.90;96875.00;;;;5074238;28;20292;-91
2022/12/20 08:54:52;;;;;;;19.20;14.07;;;5.90;79.00;5.90;96865.00;;;;5071132;28;20211;-91
2022/12/20 08:57:19;;;;;;;20.00;13.83;;;5.80;79.00;5.90;96866.00;;;;5074815;28;20646;-90
2022/12/20 08:59:49;;;;;;;23.97;14.93;;;6.00;79.00;5.90;96869.00;;;;5070887;28;20322;-91
2022/12/20 09:02:17;;;;;;;20.20;14.00;;;5.90;79.10;5.90;96856.00;;;;5073358;28;20558;-90
2022/12/20 09:04:44;;;;;;;21.07;13.97;;;5.90;79.00;5.90;96868.00;;;;5072277;28;20265;-89
2022/12/20 09:07:12;;;;;;;22.77;14.47;;;5.90;79.40;6.00;96880.00;;;;5070951;28;20208;-90
2022/12/20 09:09:42;;;;;;;21.23;14.00;;;5.90;79.20;6.10;96872.00;;;;5075446;28;20319;-90
2022/12/20 09:12:09;;;;;;;20.93;13.87;;;6.00;79.20;6.10;96875.00;;;;5076057;28;20291;-90
2022/12/20 09:14:38;;;;;;;22.27;13.70;;;6.00;79.40;6.20;96871.00;;;;5076946;28;20277;-90
2022/12/20 09:17:09;;;;;;;21.03;14.40;;;6.10;79.40;6.20;96875.00;;;;5073585;28;20303;-90
2022/12/20 09:19:37;;;;;;;18.80;14.33;;;6.70;79.70;6.30;96875.00;;;;5074697;28;20223;-90
2022/12/20 09:22:04;;;;;;;21.90;13.53;;;6.20;79.40;6.40;96873.00;;;;5072182;28;20660;-90
2022/12/20 09:24:32;;;;;;;21.77;14.27;;;6.90;79.60;6.40;96872.00;;;;5074978;28;20299;-91
2022/12/20 09:27:05;;;;;;;18.37;13.13;;;6.20;79.10;6.40;96851.00;;;;5074763;28;20210;-90
2022/12/20 09:29:33;;;;;;;20.07;13.57;;;6.30;79.10;6.40;96849.00;;;;5075460;28;20227;-90
2022/12/20 09:32:00;;;;;;;18.67;13.00;;;6.80;79.30;6.50;96839.00;;;;5074465;28;20755;-91
2022/12/20 09:34:30;;;;;;;17.43;12.40;;;6.00;78.80;6.50;96854.00;;;;5072774;28;20215;-91
2022/12/20 09:37:03;;;;;;;18.67;13.10;;;6.30;79.00;6.50;96838.00;;;;5073737;28;20207;-90
2022/12/20 09:39:31;;;;;;;19.83;13.33;;;6.40;79.20;6.50;96828.00;;;;5075756;28;20786;-91
2022/12/20 09:41:59;;;;;;;20.97;14.27;;;7.50;79.80;6.60;96828.00;;;;5075894;28;20214;-88
2022/12/20 09:44:31;;;;;;;19.53;13.77;;;6.50;79.20;6.70;96821.00;;;;5074180;28;20257;-90
2022/12/20 09:47:07;;;;;;;18.30;13.27;;;6.50;79.20;6.70;96833.00;;;;5073962;28;20485;-90
2022/12/20 09:49:41;;;;;;;19.80;13.63;;;6.60;79.10;6.70;96817.00;;;;5074716;28;20233;-90
2022/12/20 09:52:38;;;;;;;17.33;12.27;;;6.60;79.10;6.70;96829.00;;;;5077878;28;20213;-90
2022/12/20 09:55:28;;;;;;;19.23;13.17;;;7.70;79.40;6.80;96820.00;;;;5075084;28;20200;-89
2022/12/20 09:58:30;;;;;;;19.57;13.27;;;6.80;79.20;6.80;96818.00;;;;5073246;28;20790;-90
2022/12/20 10:01:15;;;;;;;18.10;12.80;;;6.70;79.10;6.90;96817.00;;;;5075636;28;20246;-91
2022/12/20 10:03:51;;;;;;;17.73;12.63;;;6.70;79.30;6.90;96829.00;;;;5076057;28;20207;-90
2022/12/20 10:06:40;;;;;;;20.17;13.20;;;6.80;79.40;7.00;96823.00;;;;5075136;28;20208;-91
2022/12/20 10:09:37;;;;;;;16.93;11.70;;;6.90;79.10;7.10;96818.00;;;;5075731;28;20235;-91
2022/12/20 10:12:24;;;;;;;18.20;12.67;;;7.70;80.50;7.10;96822.00;;;;5075370;28;20207;-90
2022/12/20 10:15:18;;;;;;;18.90;12.30;;;6.80;79.00;7.20;96827.00;;;;5075181;28;20634;-90
2022/12/20 10:18:05;;;;;;;17.53;12.60;;;7.00;79.10;7.20;96812.00;;;;5076739;28;20244;-90
2022/12/20 10:20:57;;;;;;;18.97;12.47;;;7.00;79.20;7.20;96815.00;;;;5076600;28;20726;-91
2022/12/20 10:23:42;;;;;;;18.20;12.97;;;7.10;78.90;7.30;96802.00;;;;5074482;28;20737;-90
2022/12/20 10:26:18;;;;;;;19.37;12.50;;;7.10;79.10;7.30;96803.00;;;;5080201;28;20292;-91
2022/12/20 10:28:46;;;;;;;17.90;12.97;;;7.10;79.50;7.30;96797.00;;;;5083037;28;20231;-91
2022/12/20 10:31:19;;;;;;;17.77;12.10;;;7.10;79.30;7.30;96785.00;;;;5084563;28;20285;-91
2022/12/20 10:33:49;;;;;;;18.40;13.50;;;7.20;79.40;7.40;96790.00;;;;5086507;28;20217;-91
2022/12/20 10:36:26;;;;;;;22.27;13.23;;;7.00;79.40;7.40;96797.00;;;;5081071;28;20203;-88
2022/12/20 10:38:57;;;;;;;19.07;13.30;;;7.20;79.20;7.50;96808.00;;;;5074090;28;20245;-91
2022/12/20 10:41:30;;;;;;;18.43;13.57;;;7.30;79.50;7.50;96791.00;;;;5079886;28;20230;-91
2022/12/20 10:44:03;;;;;;;18.17;11.60;;;8.70;80.40;7.60;96770.00;;;;5079251;28;20204;-92
2022/12/20 10:46:43;;;;;;;19.90;13.40;;;7.40;79.50;7.60;96770.00;;;;5075899;28;20634;-90
2022/12/20 10:49:45;;;;;;;17.77;12.77;;;8.40;79.90;7.60;96759.00;;;;5077433;28;20319;-90
2022/12/20 10:52:17;;;;;;;19.43;12.77;;;8.10;79.20;7.70;96770.00;;;;4998110;28;20224;-90
2022/12/20 10:54:47;;;;;;;16.97;12.33;;;7.50;79.50;7.70;96755.00;;;;5009246;28;20294;-90
2022/12/20 10:57:23;;;;;;;16.70;12.83;;;7.50;79.30;7.80;96766.00;;;;5076459;28;20216;-91
2022/12/20 10:59:54;;;;;;;17.30;12.73;;;7.70;79.30;7.80;96753.00;;;;5077578;28;20238;-91
2022/12/20 11:02:31;;;;;;;18.80;12.90;;;7.60;79.30;7.80;96757.00;;;;5076720;28;20222;-91
2022/12/20 11:05:15;;;;;;;17.33;12.17;;;7.60;79.10;7.90;96754.00;;;;5074474;28;20511;-90
2022/12/20 11:07:57;;;;;;;18.63;12.47;;;7.60;79.20;7.90;96726.00;;;;5077026;28;20219;-92
2022/12/20 11:10:28;;;;;;;16.13;12.20;;;7.80;79.10;7.90;96721.00;;;;5074545;28;20215;-90
2022/12/20 11:13:05;;;;;;;17.77;12.23;;;7.70;80.10;7.90;96718.00;;;;5079225;28;20242;-91
2022/12/20 11:15:37;;;;;;;18.20;12.60;;;7.80;79.30;8.00;96714.00;;;;5080696;28;20204;-94
2022/12/20 11:18:09;;;;;;;17.53;13.23;;;9.20;80.30;8.10;96701.00;;;;5076678;28;20260;-91